createdAt,value
2022-09-23T00:02:11.976Z,6.89
2022-09-23T00:05:15.477Z,6.98
2022-09-23T00:08:17.841Z,7.21
2022-09-23T00:11:23.800Z,7.09
2022-09-23T00:14:26.498Z,6.86
2022-09-23T00:17:29.054Z,6.62
2022-09-23T00:20:33.601Z,6.72
2022-09-23T00:23:36.789Z,6.71
2022-09-23T00:26:38.893Z,6.75
2022-09-23T00:29:41.376Z,6.84
2022-09-23T00:32:43.510Z,6.84
2022-09-23T00:35:46.101Z,7.00
2022-09-23T00:38:48.286Z,7.25
2022-09-23T00:41:51.215Z,6.71
2022-09-23T00:44:57.028Z,6.81
2022-09-23T00:48:02.769Z,6.68
2022-09-23T00:51:09.230Z,6.58
2022-09-23T00:54:11.750Z,6.61
2022-09-23T00:57:17.497Z,6.84
2022-09-23T01:00:20.632Z,7.01
2022-09-23T01:03:22.966Z,7.10
2022-09-23T01:06:26.266Z,7.01
2022-09-23T01:09:28.802Z,7.23
2022-09-23T01:12:52.594Z,7.21
2022-09-23T01:16:25.275Z,7.26
2022-09-23T01:20:00.497Z,6.84
2022-09-23T01:23:05.497Z,6.62
2022-09-23T01:26:29.672Z,6.71
2022-09-23T01:29:58.613Z,6.70
2022-09-23T01:33:08.825Z,6.85
2022-09-23T01:36:36.147Z,6.84
2022-09-23T01:40:07.065Z,6.81
2022-09-23T01:43:22.107Z,6.72
2022-09-23T01:46:31.965Z,6.75
2022-09-23T01:49:43.717Z,6.71
2022-09-23T01:52:48.125Z,6.70
2022-09-23T01:55:57.848Z,6.62
2022-09-23T01:59:10.972Z,6.52
2022-09-23T02:02:18.674Z,6.46
2022-09-23T02:05:37.605Z,6.63
2022-09-23T02:09:01.017Z,6.50
2022-09-23T02:12:08.479Z,6.21
2022-09-23T02:15:15.720Z,6.22
2022-09-23T02:18:33.207Z,6.17
2022-09-23T02:21:40.102Z,6.17
2022-09-23T02:24:42.746Z,6.20
2022-09-23T02:28:01.434Z,6.20
2022-09-23T02:31:12.080Z,6.32
2022-09-23T02:34:33.006Z,5.98
2022-09-23T02:38:06.319Z,6.12
2022-09-23T02:41:16.757Z,6.04
2022-09-23T02:44:20.413Z,6.05
2022-09-23T02:47:27.633Z,6.14
2022-09-23T02:50:31.036Z,6.15
2022-09-23T02:53:34.658Z,5.96
2022-09-23T02:56:37.475Z,5.94
2022-09-23T02:59:40.964Z,5.83
2022-09-23T03:03:11.245Z,5.87
2022-09-23T03:06:28.644Z,5.92
2022-09-23T03:09:42.583Z,6.09
2022-09-23T03:13:15.268Z,5.87
2022-09-23T03:16:48.025Z,5.95
2022-09-23T03:20:15.350Z,6.05
2022-09-23T03:23:34.556Z,5.90
2022-09-23T03:26:39.774Z,5.88
2022-09-23T03:29:47.370Z,5.91
2022-09-23T03:32:51.343Z,5.93
2022-09-23T03:36:26.450Z,5.99
2022-09-23T03:39:31.825Z,6.18
2022-09-23T03:42:35.809Z,6.40
2022-09-23T03:45:37.987Z,6.57
2022-09-23T03:48:40.736Z,6.55
2022-09-23T03:51:44.791Z,6.35
2022-09-23T03:54:48.090Z,6.55
2022-09-23T03:57:50.260Z,6.10
2022-09-23T04:00:54.748Z,6.02
2022-09-23T04:03:58.359Z,6.20
2022-09-23T04:07:00.635Z,6.21
2022-09-23T04:10:05.184Z,6.22
2022-09-23T04:13:07.301Z,6.18
2022-09-23T04:16:09.841Z,6.04
2022-09-23T04:19:12.673Z,6.06
2022-09-23T04:22:15.627Z,6.20
2022-09-23T04:25:17.736Z,6.11
2022-09-23T04:28:21.197Z,6.03
2022-09-23T04:31:23.898Z,6.22
2022-09-23T04:34:26.665Z,6.22
2022-09-23T04:37:29.457Z,6.28
2022-09-23T04:40:32.589Z,6.20
2022-09-23T04:43:34.730Z,6.13
2022-09-23T04:46:39.491Z,6.25
2022-09-23T04:49:41.797Z,6.30
2022-09-23T04:52:44.503Z,6.07
2022-09-23T04:55:46.702Z,5.99
2022-09-23T04:58:50.593Z,6.11
2022-09-23T05:01:54.567Z,6.37
2022-09-23T05:04:57.494Z,6.51
2022-09-23T05:08:00.471Z,6.53
2022-09-23T05:11:08.950Z,6.56
2022-09-23T05:14:11.389Z,6.76
2022-09-23T05:17:14.715Z,6.73
2022-09-23T05:20:17.821Z,6.88
2022-09-23T05:23:20.213Z,6.93
2022-09-23T05:26:25.363Z,7.11
2022-09-23T05:29:29.030Z,7.45
2022-09-23T05:32:31.707Z,7.85
2022-09-23T05:35:34.112Z,7.86
2022-09-23T05:38:36.650Z,7.74
2022-09-23T05:41:40.288Z,7.84
2022-09-23T05:44:42.710Z,7.87
2022-09-23T05:47:45.211Z,8.05
2022-09-23T05:50:53.704Z,8.18
2022-09-23T05:53:58.255Z,8.31
2022-09-23T05:57:04.345Z,8.35
2022-09-23T06:00:08.811Z,8.35
2022-09-23T06:03:15.137Z,8.32
2022-09-23T06:06:20.618Z,8.55
2022-09-23T06:09:23.071Z,8.76
2022-09-23T06:12:25.673Z,8.74
2022-09-23T06:15:27.840Z,8.60
2022-09-23T06:18:30.376Z,8.72
2022-09-23T06:21:34.630Z,8.78
2022-09-23T06:24:37.673Z,8.97
2022-09-23T06:27:39.859Z,9.23
2022-09-23T06:30:42.763Z,9.52
2022-09-23T06:33:46.021Z,10.43
2022-09-23T06:36:48.428Z,12.41
2022-09-23T06:39:50.575Z,13.95
2022-09-23T06:43:00.304Z,15.57
2022-09-23T06:46:04.487Z,16.83
2022-09-23T06:49:07.278Z,17.38
2022-09-23T06:52:09.670Z,18.18
2022-09-23T06:55:12.033Z,18.50
2022-09-23T06:58:14.144Z,19.31
2022-09-23T07:01:17.507Z,20.26
2022-09-23T07:04:19.745Z,19.69
2022-09-23T07:07:22.257Z,19.64
2022-09-23T07:10:24.684Z,20.30
2022-09-23T07:13:31.740Z,20.44
2022-09-23T07:16:34.018Z,20.71
2022-09-23T07:19:36.614Z,19.54
2022-09-23T07:22:39.164Z,18.91
2022-09-23T07:25:43.160Z,18.43
2022-09-23T07:28:45.746Z,17.26
2022-09-23T07:31:49.767Z,17.06
2022-09-23T07:34:53.250Z,15.95
2022-09-23T07:37:55.852Z,15.68
2022-09-23T07:41:08.881Z,15.49
2022-09-23T07:44:11.974Z,15.40
2022-09-23T07:47:14.575Z,15.06
2022-09-23T07:50:19.328Z,14.75
2022-09-23T07:53:21.522Z,14.75
2022-09-23T07:56:29.667Z,14.79
2022-09-23T07:59:32.125Z,15.01
2022-09-23T08:02:34.798Z,15.06
2022-09-23T08:05:38.987Z,15.21
2022-09-23T08:08:44.580Z,15.15
2022-09-23T08:11:48.123Z,14.95
2022-09-23T08:14:50.382Z,14.88
2022-09-23T08:17:52.893Z,15.07
2022-09-23T08:20:54.977Z,15.18
2022-09-23T08:23:57.559Z,15.35
2022-09-23T08:26:59.697Z,15.03
2022-09-23T08:30:02.443Z,15.09
2022-09-23T08:33:04.775Z,15.07
2022-09-23T08:36:07.634Z,15.23
2022-09-23T08:39:13.247Z,15.23
2022-09-23T08:42:27.848Z,15.28
2022-09-23T08:45:30.135Z,15.50
2022-09-23T08:48:36.814Z,15.30
2022-09-23T08:51:46.209Z,15.14
2022-09-23T08:54:53.146Z,15.22
2022-09-23T09:01:52.376Z,15.46
2022-09-23T09:04:59.733Z,15.68
2022-09-23T09:08:03.796Z,15.68
2022-09-23T09:11:06.928Z,15.84
2022-09-23T09:14:18.043Z,15.95
2022-09-23T09:17:35.093Z,16.25
2022-09-23T09:20:59.260Z,16.36
2022-09-23T09:24:07.553Z,16.25
2022-09-23T09:27:13.646Z,16.21
2022-09-23T09:30:17.477Z,16.33
2022-09-23T09:33:27.550Z,16.48
2022-09-23T09:36:44.350Z,16.58
2022-09-23T09:39:46.700Z,16.74
2022-09-23T09:42:50.383Z,16.85
2022-09-23T09:46:08.411Z,16.93
2022-09-23T09:49:23.333Z,17.00
2022-09-23T09:52:29.550Z,17.14
2022-09-23T09:55:31.778Z,17.16
2022-09-23T09:58:55.612Z,17.13
2022-09-23T10:02:19.582Z,17.14
2022-09-23T10:05:30.306Z,16.89
2022-09-23T10:08:35.371Z,16.75
2022-09-23T10:11:39.189Z,16.89
2022-09-23T10:14:43.121Z,16.61
2022-09-23T10:17:50.312Z,16.51
2022-09-23T10:20:52.974Z,16.68
2022-09-23T10:24:01.615Z,17.17
2022-09-23T10:27:11.809Z,17.13
2022-09-23T10:30:23.405Z,17.47
2022-09-23T10:33:28.489Z,17.85
2022-09-23T10:36:33.175Z,18.23
2022-09-23T10:39:53.985Z,18.29
2022-09-23T10:43:24.656Z,18.04
2022-09-23T10:46:38.355Z,17.89
2022-09-23T10:49:58.655Z,18.16
2022-09-23T10:53:27.929Z,17.86
2022-09-23T10:56:41.145Z,17.91
2022-09-23T11:00:03.464Z,17.66
2022-09-23T11:03:32.217Z,17.77
2022-09-23T11:06:47.923Z,17.76
2022-09-23T11:10:29.168Z,17.56
2022-09-23T11:14:07.103Z,17.82
2022-09-23T11:17:34.606Z,17.62
2022-09-23T11:20:42.528Z,17.35
2022-09-23T11:23:45.014Z,17.30
2022-09-23T11:27:05.032Z,17.58
2022-09-23T11:30:10.512Z,17.44
2022-09-23T11:34:15.964Z,17.62
2022-09-23T11:37:23.998Z,17.59
2022-09-23T11:40:36.246Z,17.41
2022-09-23T11:43:41.048Z,17.51
2022-09-23T11:47:07.981Z,17.30
2022-09-23T11:50:34.431Z,17.34
2022-09-23T11:53:49.902Z,17.45
2022-09-23T11:56:57.301Z,17.27
2022-09-23T12:00:06.274Z,17.23
2022-09-23T12:03:28.847Z,17.38
2022-09-23T12:06:41.748Z,17.77
2022-09-23T12:10:03.430Z,18.01
2022-09-23T12:13:32.289Z,18.01
2022-09-23T12:17:02.765Z,17.78
2022-09-23T12:20:13.136Z,17.42
2022-09-23T12:23:45.954Z,17.39
2022-09-23T12:26:57.127Z,17.14
2022-09-23T12:30:04.025Z,17.03
2022-09-23T12:33:09.436Z,16.48
2022-09-23T12:36:14.940Z,16.62
2022-09-23T12:39:49.720Z,16.66
2022-09-23T12:42:52.274Z,16.94
2022-09-23T12:45:54.471Z,17.27
2022-09-23T12:49:02.321Z,17.63
2022-09-23T12:52:10.444Z,17.74
2022-09-23T12:55:24.946Z,17.99
2022-09-23T12:58:42.181Z,17.94
2022-09-23T13:01:44.890Z,17.73
2022-09-23T13:05:16.114Z,17.69
2022-09-23T13:08:20.781Z,17.61
2022-09-23T13:11:27.928Z,17.97
2022-09-23T13:14:33.047Z,17.98
2022-09-23T13:17:39.911Z,18.26
2022-09-23T13:20:42.368Z,18.35
2022-09-23T13:24:28.877Z,18.41
2022-09-23T13:27:33.614Z,18.24
2022-09-23T13:30:36.120Z,18.14
2022-09-23T13:33:43.955Z,18.06
2022-09-23T13:36:47.843Z,18.11
2022-09-23T13:39:51.270Z,18.03
2022-09-23T13:42:57.934Z,17.95
2022-09-23T13:46:02.008Z,17.94
2022-09-23T13:49:04.492Z,17.89
2022-09-23T13:52:29.915Z,17.65
2022-09-23T13:55:37.334Z,17.86
2022-09-23T13:58:40.358Z,17.95
2022-09-23T14:01:42.441Z,17.68
2022-09-23T14:04:44.914Z,17.52
2022-09-23T14:07:48.704Z,17.40
2022-09-23T14:10:51.570Z,17.14
2022-09-23T14:13:54.955Z,16.92
2022-09-23T14:16:58.511Z,16.87
2022-09-23T14:20:01.047Z,16.78
2022-09-23T14:23:06.174Z,16.72
2022-09-23T14:26:08.340Z,16.67
2022-09-23T14:29:15.474Z,16.75
2022-09-23T14:32:24.749Z,16.54
2022-09-23T14:35:40.267Z,16.55
2022-09-23T14:38:51.369Z,16.43
2022-09-23T14:41:53.845Z,16.40
2022-09-23T14:44:56.077Z,16.51
2022-09-23T14:48:01.537Z,16.71
2022-09-23T14:51:09.216Z,16.81
2022-09-23T14:54:36.855Z,17.03
2022-09-23T14:57:39.811Z,17.08
2022-09-23T15:00:57.337Z,17.30
2022-09-23T15:04:11.580Z,17.39
2022-09-23T15:07:18.847Z,17.56
2022-09-23T15:10:27.618Z,17.68
2022-09-23T15:13:32.411Z,17.60
2022-09-23T15:16:34.620Z,17.58
2022-09-23T15:19:38.022Z,17.53
2022-09-23T15:22:48.848Z,17.57
2022-09-23T15:25:51.466Z,17.37
2022-09-23T15:28:58.290Z,17.23
2022-09-23T15:32:00.918Z,17.10
2022-09-23T15:35:03.213Z,16.87
2022-09-23T15:38:05.583Z,16.67
2022-09-23T15:41:07.869Z,16.50
2022-09-23T15:44:14.988Z,16.36
2022-09-23T15:47:18.626Z,16.25
2022-09-23T15:50:21.098Z,16.13
2022-09-23T15:53:27.764Z,16.01
2022-09-23T15:56:30.139Z,15.88
2022-09-23T15:59:32.756Z,15.72
2022-09-23T16:02:35.145Z,15.56
2022-09-23T16:05:39.295Z,15.45
2022-09-23T16:08:42.187Z,15.38
2022-09-23T16:11:47.159Z,15.23
2022-09-23T16:14:49.251Z,15.09
2022-09-23T16:17:51.662Z,14.99
2022-09-23T16:20:54.664Z,14.90
2022-09-23T16:23:57.957Z,14.77
2022-09-23T16:27:04.320Z,14.65
2022-09-23T16:30:07.547Z,14.58
2022-09-23T16:33:09.700Z,14.46
2022-09-23T16:36:35.820Z,14.25
2022-09-23T16:39:38.792Z,14.05
2022-09-23T16:42:41.147Z,13.93
2022-09-23T16:45:43.379Z,13.84
2022-09-23T16:48:52.112Z,13.81
2022-09-23T16:51:54.857Z,13.62
2022-09-23T16:54:57.374Z,13.56
2022-09-23T16:57:59.451Z,13.46
2022-09-23T17:01:20.753Z,13.28
2022-09-23T17:04:22.914Z,12.94
2022-09-23T17:07:26.119Z,12.81
2022-09-23T17:10:28.325Z,12.58
2022-09-23T17:13:31.021Z,12.59
2022-09-23T17:16:34.973Z,12.61
2022-09-23T17:19:38.085Z,12.38
2022-09-23T17:22:41.275Z,12.40
2022-09-23T17:25:48.172Z,12.27
2022-09-23T17:28:51.658Z,12.25
2022-09-23T17:31:54.363Z,11.94
2022-09-23T17:34:56.525Z,11.92
2022-09-23T17:37:58.883Z,11.86
2022-09-23T17:41:02.047Z,11.89
2022-09-23T17:44:04.764Z,11.86
2022-09-23T17:47:06.842Z,11.90
2022-09-23T17:50:09.293Z,11.98
2022-09-23T17:53:11.380Z,11.92
2022-09-23T17:56:19.424Z,11.92
2022-09-23T17:59:21.538Z,11.66
2022-09-23T18:02:23.919Z,11.68
2022-09-23T18:05:26.307Z,11.57
2022-09-23T18:08:30.431Z,11.46
2022-09-23T18:11:35.921Z,11.32
2022-09-23T18:14:38.009Z,11.30
2022-09-23T18:17:40.386Z,11.16
2022-09-23T18:20:42.450Z,11.16
2022-09-23T18:23:44.919Z,11.13
2022-09-23T18:26:47.679Z,11.06
2022-09-23T18:29:50.071Z,11.05
2022-09-23T18:32:52.466Z,10.93
2022-09-23T18:35:54.895Z,10.80
2022-09-23T18:38:56.993Z,10.81
2022-09-23T18:42:00.107Z,10.79
2022-09-23T18:45:02.198Z,10.65
2022-09-23T18:48:23.167Z,10.59
2022-09-23T18:51:28.393Z,10.66
2022-09-23T18:54:31.413Z,10.75
2022-09-23T18:57:33.492Z,10.78
2022-09-23T19:00:36.076Z,10.72
2022-09-23T19:03:38.756Z,10.67
2022-09-23T19:06:41.382Z,10.61
2022-09-23T19:09:43.480Z,10.57
2022-09-23T19:12:46.628Z,10.50
2022-09-23T19:15:48.761Z,10.47
2022-09-23T19:18:52.177Z,10.34
2022-09-23T19:21:54.716Z,10.21
2022-09-23T19:24:57.059Z,10.04
2022-09-23T19:27:59.154Z,10.06
2022-09-23T19:31:16.910Z,10.01
2022-09-23T19:34:23.838Z,9.93
2022-09-23T19:37:26.256Z,9.95
2022-09-23T19:40:31.346Z,9.80
2022-09-23T19:43:40.076Z,9.87
2022-09-23T19:46:45.251Z,9.75
2022-09-23T19:49:48.525Z,9.55
2022-09-23T19:52:51.737Z,9.51
2022-09-23T19:55:56.166Z,9.35
2022-09-23T19:58:59.469Z,9.27
2022-09-23T20:02:01.933Z,9.14
2022-09-23T20:05:04.577Z,9.19
2022-09-23T20:08:06.676Z,9.10
2022-09-23T20:11:12.437Z,9.07
2022-09-23T20:14:14.940Z,9.03
2022-09-23T20:17:19.108Z,9.07
2022-09-23T20:20:21.204Z,9.01
2022-09-23T20:23:23.527Z,8.94
2022-09-23T20:26:44.326Z,9.12
2022-09-23T20:29:46.679Z,9.14
2022-09-23T20:32:49.102Z,9.16
2022-09-23T20:35:53.183Z,9.23
2022-09-23T20:39:01.762Z,9.15
2022-09-23T20:42:04.083Z,8.96
2022-09-23T20:45:07.089Z,8.97
2022-09-23T20:48:11.282Z,8.71
2022-09-23T20:51:13.391Z,8.48
2022-09-23T20:54:18.924Z,8.54
2022-09-23T20:57:21.072Z,8.45
2022-09-23T21:00:23.416Z,8.65
2022-09-23T21:03:26.547Z,8.24
2022-09-23T21:06:29.392Z,8.13
2022-09-23T21:09:31.479Z,8.07
2022-09-23T21:12:35.124Z,8.00
2022-09-23T21:15:37.920Z,8.21
2022-09-23T21:18:40.268Z,8.21
2022-09-23T21:21:43.177Z,8.29
2022-09-23T21:25:31.552Z,8.32
2022-09-23T21:28:11.357Z,8.24
2022-09-23T21:31:25.387Z,8.21
2022-09-23T21:34:29.979Z,8.11
2022-09-23T21:37:32.323Z,8.15
2022-09-23T21:40:53.039Z,8.05
2022-09-23T21:43:56.285Z,7.97
2022-09-23T21:46:59.273Z,8.01
2022-09-23T21:50:02.838Z,8.11
2022-09-23T21:53:07.115Z,8.13
2022-09-23T21:56:11.871Z,8.22
2022-09-23T21:59:13.968Z,8.05
2022-09-23T22:02:17.244Z,8.02
2022-09-23T22:05:19.598Z,7.80
2022-09-23T22:08:21.694Z,7.57
2022-09-23T22:11:43.208Z,7.46
2022-09-23T22:14:47.139Z,7.39
2022-09-23T22:17:49.974Z,7.40
2022-09-23T22:20:52.048Z,7.53
2022-09-23T22:24:01.110Z,7.69
2022-09-23T22:27:03.379Z,7.46
2022-09-23T22:30:25.012Z,7.36
2022-09-23T22:33:27.076Z,7.28
2022-09-23T22:36:29.439Z,7.29
2022-09-23T22:39:31.515Z,7.23
2022-09-23T22:42:34.596Z,7.34
2022-09-23T22:45:37.610Z,7.36
2022-09-23T22:48:39.955Z,7.12
2022-09-23T22:51:42.705Z,7.15
2022-09-23T22:54:45.036Z,7.22
2022-09-23T22:57:50.447Z,6.94
2022-09-23T23:00:56.806Z,6.84
2022-09-23T23:04:02.276Z,6.99
2022-09-23T23:07:06.878Z,7.04
2022-09-23T23:10:10.280Z,7.04
2022-09-23T23:13:12.844Z,6.86
2022-09-23T23:16:14.964Z,6.79
2022-09-23T23:19:19.098Z,6.88
2022-09-23T23:22:21.234Z,6.83
2022-09-23T23:25:23.621Z,6.73
2022-09-23T23:28:28.019Z,6.64
2022-09-23T23:31:32.125Z,6.69
2022-09-23T23:34:34.415Z,6.64
2022-09-23T23:37:36.764Z,6.64
2022-09-23T23:40:38.883Z,6.61
2022-09-23T23:43:43.232Z,6.61
2022-09-23T23:46:45.317Z,6.71
2022-09-23T23:49:47.708Z,6.68
2022-09-23T23:52:49.788Z,6.71
2022-09-23T23:55:52.484Z,6.90
2022-09-23T23:58:56.488Z,7.16
